Time;durP1;ratioP1;P1;durP2;ratioP2;P2;SDS_P1;SDS_P2;PMS_P1;PMS_P2;Temp;Humidity;BMP_temperature;BMP_pressure;BME280_temperature;BME280_humidity;BME280_pressure;Samples;Min_cycle;Max_cycle;Signal;HPM_P1;HPM_P2
2022/07/20 00:01:20;;;;;;;7.20;5.80;;;;;;;19.32;69.35;101151.60;1688908;83;25731;-82
2022/07/20 00:03:46;;;;;;;10.08;6.15;;;;;;;19.30;69.52;101159.99;1680326;84;25502;-81
2022/07/20 00:06:14;;;;;;;11.12;7.03;;;;;;;19.29;69.44;101154.80;1672379;84;25797;-81
2022/07/20 00:11:25;;;;;;;10.93;7.70;;;;;;;19.33;69.60;101148.67;1673150;84;25820;-81
2022/07/20 00:13:59;;;;;;;8.65;6.75;;;;;;;19.33;69.62;101154.63;1685325;84;26608;-82
2022/07/20 00:16:28;;;;;;;7.72;6.40;;;;;;;19.31;69.50;101155.39;1691928;83;25775;-81
2022/07/20 00:18:54;;;;;;;7.50;6.30;;;;;;;19.30;69.58;101155.92;1675085;84;25948;-81
2022/07/20 00:21:21;;;;;;;9.90;6.42;;;;;;;19.29;69.41;101156.96;1680911;84;28764;-82
2022/07/20 00:23:48;;;;;;;8.28;6.20;;;;;;;19.27;69.36;101163.16;1694549;84;26527;-81
2022/07/20 00:26:14;;;;;;;7.12;6.00;;;;;;;19.25;69.42;101163.39;1680390;83;26082;-82
2022/07/20 00:28:41;;;;;;;9.70;6.95;;;;;;;19.20;69.46;101162.44;1697164;84;25928;-81
2022/07/20 00:31:07;;;;;;;10.85;7.40;;;;;;;19.16;69.37;101159.88;1701009;83;25818;-82
2022/07/20 00:33:33;;;;;;;9.00;7.00;;;;;;;19.11;69.49;101155.66;1700655;84;27623;-81
2022/07/20 00:36:00;;;;;;;9.43;7.30;;;;;;;19.07;69.52;101152.58;1650143;84;25815;-82
2022/07/20 00:38:26;;;;;;;8.93;7.08;;;;;;;19.03;69.56;101154.06;1697390;82;25916;-81
2022/07/20 00:40:52;;;;;;;9.03;6.37;;;;;;;18.99;69.47;101152.87;1688668;83;25846;-81
2022/07/20 00:43:19;;;;;;;10.38;7.28;;;;;;;18.98;69.63;101155.83;1689276;84;26533;-82
2022/07/20 00:45:46;;;;;;;10.23;6.62;;;;;;;18.98;69.61;101157.18;1700340;83;27435;-82
2022/07/20 00:48:12;;;;;;;7.90;7.05;;;;;;;18.95;69.69;101154.39;1700888;83;25963;-82
2022/07/20 00:50:39;;;;;;;9.63;6.53;;;;;;;18.93;70.07;101157.02;1676041;83;25460;-81
2022/07/20 00:53:07;;;;;;;8.20;7.33;;;;;;;18.89;70.07;101160.73;1695998;84;25834;-81
2022/07/20 00:55:34;;;;;;;9.85;6.47;;;;;;;18.85;70.36;101162.25;1683732;84;26447;-82
2022/07/20 00:58:01;;;;;;;10.93;7.03;;;;;;;18.80;70.40;101170.75;1656674;85;27474;-82
2022/07/20 01:00:27;;;;;;;10.63;7.17;;;;;;;18.78;70.27;101163.36;1675686;84;25983;-81
2022/07/20 01:02:53;;;;;;;9.88;7.37;;;;;;;18.77;70.24;101171.22;1675622;85;25824;-81
2022/07/20 01:05:20;;;;;;;8.28;6.87;;;;;;;18.73;69.91;101168.14;1675929;84;26489;-81
2022/07/20 01:07:49;;;;;;;9.08;7.12;;;;;;;18.69;69.65;101175.59;1677023;84;25922;-82
2022/07/20 01:10:18;;;;;;;8.30;6.92;;;;;;;18.66;70.62;101177.39;1698408;83;27470;-82
2022/07/20 01:12:49;;;;;;;9.70;7.15;;;;;;;18.70;70.84;101174.53;1695991;83;26490;-81
2022/07/20 01:15:17;;;;;;;7.17;6.45;;;;;;;18.70;70.99;101175.89;1702997;83;25765;-81
2022/07/20 01:17:43;;;;;;;6.72;5.62;;;;;;;18.65;70.79;101170.33;1692135;83;25806;-81
2022/07/20 01:20:17;;;;;;;8.95;6.30;;;;;;;18.57;70.61;101180.94;1717672;83;25942;-81
2022/07/20 01:22:46;;;;;;;9.25;6.37;;;;;;;18.51;70.52;101175.05;1705830;83;27425;-82
2022/07/20 01:25:13;;;;;;;6.20;5.55;;;;;;;18.44;70.32;101183.25;1698811;83;25897;-82
2022/07/20 01:27:39;;;;;;;6.90;6.20;;;;;;;18.37;70.42;101178.38;1701646;83;25823;-82
2022/07/20 01:30:06;;;;;;;7.22;5.45;;;;;;;18.34;70.45;101180.20;1694811;83;25701;-81
2022/07/20 01:32:33;;;;;;;9.75;7.15;;;;;;;18.28;70.65;101179.71;1708147;83;25962;-81
2022/07/20 01:35:00;;;;;;;8.20;6.67;;;;;;;18.23;70.49;101178.22;1690302;83;26820;-81
2022/07/20 01:37:28;;;;;;;9.10;6.75;;;;;;;18.20;70.59;101184.59;1670868;83;25367;-81
2022/07/20 01:39:54;;;;;;;10.45;7.60;;;;;;;18.16;70.84;101178.80;1678213;83;25912;-81
2022/07/20 01:42:20;;;;;;;8.45;7.45;;;;;;;18.10;71.01;101182.39;1717279;83;25564;-82
2022/07/20 01:44:46;;;;;;;9.93;7.03;;;;;;;18.07;71.43;101189.61;1713885;83;26254;-81
2022/07/20 01:47:13;;;;;;;7.83;7.08;;;;;;;18.07;71.38;101189.61;1691203;83;28291;-81
2022/07/20 01:49:39;;;;;;;9.83;6.80;;;;;;;18.03;71.43;101191.10;1707486;83;25991;-81
2022/07/20 01:52:05;;;;;;;9.38;6.55;;;;;;;18.01;71.48;101190.49;1684953;83;25573;-82
2022/07/20 01:54:31;;;;;;;11.35;7.42;;;;;;;18.01;71.34;101192.37;1709384;83;25566;-81
2022/07/20 01:56:58;;;;;;;11.43;8.13;;;;;;;17.98;71.26;101195.02;1712549;83;26018;-81
2022/07/20 01:59:24;;;;;;;9.30;8.23;;;;;;;17.97;71.59;101189.28;1690383;83;27871;-81
2022/07/20 02:01:50;;;;;;;10.90;8.23;;;;;;;17.99;71.77;101190.41;1693733;83;25862;-81
2022/07/20 02:04:17;;;;;;;9.35;8.13;;;;;;;17.97;71.71;101183.86;1673050;83;26595;-81
2022/07/20 02:06:43;;;;;;;10.20;7.72;;;;;;;17.93;71.89;101179.09;1691390;83;26277;-81
2022/07/20 02:09:09;;;;;;;10.20;7.67;;;;;;;17.89;71.84;101176.52;1692426;83;25763;-81
2022/07/20 02:11:36;;;;;;;8.13;7.20;;;;;;;17.83;71.31;101175.54;1673004;83;27449;-81
2022/07/20 02:14:02;;;;;;;8.80;6.87;;;;;;;17.78;71.23;101173.16;1711309;83;26525;-81
2022/07/20 02:16:29;;;;;;;8.30;7.50;;;;;;;17.73;71.78;101170.59;1685920;83;25344;-81
2022/07/20 02:18:55;;;;;;;11.05;8.03;;;;;;;17.72;72.03;101173.53;1714087;83;25482;-81
2022/07/20 02:21:23;;;;;;;11.05;8.20;;;;;;;17.69;72.12;101165.83;1716532;83;26509;-81
2022/07/20 02:23:50;;;;;;;11.18;9.75;;;;;;;17.68;72.23;101173.11;1679306;83;27568;-81
2022/07/20 02:26:17;;;;;;;10.98;9.88;;;;;;;17.69;72.26;101169.89;1717109;82;26660;-81
2022/07/20 02:28:44;;;;;;;12.63;10.30;;;;;;;17.62;72.09;101174.00;1679041;83;25380;-81
2022/07/20 02:31:10;;;;;;;11.63;9.40;;;;;;;17.56;71.67;101171.33;1673977;85;25807;-81
2022/07/20 02:33:37;;;;;;;11.10;9.43;;;;;;;17.53;71.78;101182.10;1690720;84;25940;-81
2022/07/20 02:36:04;;;;;;;9.20;8.15;;;;;;;17.56;72.58;101183.52;1660622;86;28410;-81
2022/07/20 02:38:30;;;;;;;8.70;7.33;;;;;;;17.58;72.55;101186.84;1673939;83;25354;-81
2022/07/20 02:40:57;;;;;;;6.78;6.10;;;;;;;17.55;72.28;101190.00;1699421;83;25954;-81
2022/07/20 02:43:24;;;;;;;8.35;7.28;;;;;;;17.53;72.11;101193.45;1709521;83;25830;-81
2022/07/20 02:45:50;;;;;;;9.98;7.45;;;;;;;17.56;72.35;101195.70;1705771;83;25782;-81
2022/07/20 02:48:16;;;;;;;10.13;7.78;;;;;;;17.54;72.26;101198.65;1716627;83;27489;-81
2022/07/20 02:50:42;;;;;;;10.48;7.35;;;;;;;17.50;72.25;101210.13;1714800;83;25818;-81
2022/07/20 02:53:11;;;;;;;8.68;7.03;;;;;;;17.42;72.28;101213.06;1671875;83;25839;-81
2022/07/20 02:55:39;;;;;;;10.03;7.42;;;;;;;17.34;72.18;101212.77;1694915;83;25700;-81
2022/07/20 02:58:06;;;;;;;8.73;7.53;;;;;;;17.22;72.11;101217.22;1691283;83;25386;-81
2022/07/20 03:00:33;;;;;;;8.50;7.20;;;;;;;17.18;72.25;101223.27;1692506;83;27474;-81
2022/07/20 03:03:01;;;;;;;8.70;7.22;;;;;;;17.14;72.46;101220.69;1680250;83;25994;-81
2022/07/20 03:05:27;;;;;;;8.73;7.17;;;;;;;17.08;72.62;101219.69;1713151;82;25899;-81
2022/07/20 03:07:54;;;;;;;10.25;6.95;;;;;;;17.03;72.74;101218.12;1695216;83;26300;-81
2022/07/20 03:10:20;;;;;;;7.95;6.50;;;;;;;17.05;72.87;101228.73;1699664;83;25928;-81
2022/07/20 03:12:46;;;;;;;9.10;6.72;;;;;;;17.05;72.87;101226.02;1710522;83;27446;-81
2022/07/20 03:15:13;;;;;;;7.12;6.42;;;;;;;17.08;72.87;101229.67;1704333;83;25966;-81
2022/07/20 03:17:49;;;;;;;9.00;6.97;;;;;;;17.10;72.92;101226.23;1690087;83;25932;-81
2022/07/20 03:20:22;;;;;;;7.70;6.65;;;;;;;17.12;73.01;101229.55;1686621;83;25876;-81
2022/07/20 03:22:49;;;;;;;8.43;7.17;;;;;;;17.11;73.17;101223.30;1683267;83;25924;-80
2022/07/20 03:25:16;;;;;;;8.95;7.37;;;;;;;17.13;73.38;101227.16;1683273;84;27458;-81
2022/07/20 03:27:43;;;;;;;9.30;7.65;;;;;;;17.15;73.47;101227.23;1670853;84;25902;-82
2022/07/20 03:30:10;;;;;;;10.95;7.40;;;;;;;17.17;73.57;101236.52;1679060;83;26003;-82
2022/07/20 03:32:37;;;;;;;12.95;8.08;;;;;;;17.22;73.77;101235.33;1679973;83;26545;-82
2022/07/20 03:35:04;;;;;;;12.13;8.43;;;;;;;17.26;73.34;101240.63;1678867;83;25816;-82
2022/07/20 03:37:31;;;;;;;10.45;7.85;;;;;;;17.27;73.29;101239.59;1681581;83;27487;-82
2022/07/20 03:39:57;;;;;;;10.58;8.00;;;;;;;17.35;73.67;101246.11;1678491;83;25813;-82
2022/07/20 03:42:23;;;;;;;8.48;7.50;;;;;;;17.36;73.58;101239.15;1678753;83;25289;-82
2022/07/20 03:44:50;;;;;;;9.90;8.48;;;;;;;17.38;73.77;101240.28;1682400;83;25920;-83
2022/07/20 03:47:16;;;;;;;10.70;8.03;;;;;;;17.39;73.91;101231.92;1689928;83;25979;-82
2022/07/20 03:49:42;;;;;;;14.15;8.73;;;;;;;17.42;73.85;101238.80;1694600;83;28254;-82
2022/07/20 03:52:09;;;;;;;11.65;8.40;;;;;;;17.47;73.66;101241.16;1687495;83;25967;-82
2022/07/20 03:54:35;;;;;;;12.13;8.43;;;;;;;17.48;73.35;101240.12;1692187;83;25918;-82
2022/07/20 03:57:01;;;;;;;12.00;8.65;;;;;;;17.50;73.37;101239.92;1693568;83;26000;-82
2022/07/20 03:59:28;;;;;;;13.50;9.28;;;;;;;17.54;73.79;101250.11;1691649;83;25340;-82
2022/07/20 04:01:54;;;;;;;9.90;8.15;;;;;;;17.59;74.27;101248.95;1693254;83;27506;-82
2022/07/20 04:04:20;;;;;;;11.03;8.08;;;;;;;17.65;74.42;101250.79;1693732;83;25647;-83
2022/07/20 04:06:46;;;;;;;11.12;7.62;;;;;;;17.69;74.31;101255.23;1694921;83;26545;-82
2022/07/20 04:09:13;;;;;;;9.13;6.70;;;;;;;17.72;74.32;101261.59;1681301;84;26271;-82
2022/07/20 04:11:39;;;;;;;7.95;6.47;;;;;;;17.86;74.52;101260.97;1679963;84;26627;-82
2022/07/20 04:14:05;;;;;;;12.58;6.45;;;;;;;17.86;74.01;101259.61;1677632;84;27625;-82
2022/07/20 04:16:32;;;;;;;12.30;7.10;;;;;;;17.87;73.83;101256.70;1689390;83;26606;-82
2022/07/20 04:18:58;;;;;;;14.43;8.48;;;;;;;17.83;73.67;101262.27;1675842;84;25847;-82
2022/07/20 04:21:24;;;;;;;8.48;7.53;;;;;;;17.82;73.97;101267.36;1684821;84;25696;-82
2022/07/20 04:23:51;;;;;;;13.08;6.58;;;;;;;17.81;74.10;101268.42;1681091;84;25936;-82
2022/07/20 04:26:17;;;;;;;9.13;6.55;;;;;;;17.81;74.37;101271.66;1680108;83;27455;-83
2022/07/20 04:28:43;;;;;;;11.15;7.00;;;;;;;17.85;74.63;101271.52;1687277;83;25991;-82
2022/07/20 04:31:10;;;;;;;9.35;7.03;;;;;;;17.95;74.85;101271.34;1685094;83;25966;-82
2022/07/20 04:33:36;;;;;;;9.68;6.75;;;;;;;18.07;74.88;101265.52;1677624;83;26309;-82
2022/07/20 04:36:03;;;;;;;8.93;7.17;;;;;;;18.18;75.14;101269.40;1684428;83;25535;-82
2022/07/20 04:38:29;;;;;;;12.93;7.53;;;;;;;18.24;75.01;101268.00;1684283;83;27509;-82
2022/07/20 04:40:56;;;;;;;10.68;8.33;;;;;;;18.30;75.27;101262.23;1685566;83;26530;-82
2022/07/20 04:43:23;;;;;;;8.85;7.95;;;;;;;18.38;75.67;101268.73;1686137;83;25838;-82
2022/07/20 04:45:49;;;;;;;10.63;8.18;;;;;;;18.46;75.73;101263.05;1683620;83;26254;-83
2022/07/20 04:48:15;;;;;;;11.22;8.28;;;;;;;18.59;75.65;101262.94;1687813;83;26574;-83
2022/07/20 04:50:42;;;;;;;9.93;8.00;;;;;;;18.67;75.60;101264.00;1699725;83;27437;-83
2022/07/20 04:53:08;;;;;;;11.97;8.53;;;;;;;18.82;75.96;101266.39;1684228;83;25708;-82
2022/07/20 04:55:34;;;;;;;10.10;9.00;;;;;;;18.97;75.99;101266.83;1698879;83;26148;-82
2022/07/20 04:58:00;;;;;;;12.30;9.15;;;;;;;19.07;76.04;101267.16;1710854;83;25726;-82
2022/07/20 05:00:27;;;;;;;11.63;9.60;;;;;;;19.14;75.93;101265.17;1683535;83;25872;-82
2022/07/20 05:02:53;;;;;;;9.70;8.68;;;;;;;19.22;75.84;101262.98;1716193;83;27478;-82
2022/07/20 05:05:19;;;;;;;12.40;9.73;;;;;;;19.30;75.93;101263.73;1685009;83;25842;-82
2022/07/20 05:07:46;;;;;;;10.93;8.78;;;;;;;19.40;75.88;101262.70;1691329;83;25760;-83
2022/07/20 05:10:12;;;;;;;11.28;8.35;;;;;;;19.47;76.12;101260.73;1718281;83;25913;-82
2022/07/20 05:12:38;;;;;;;11.18;8.93;;;;;;;19.56;76.30;101262.08;1702158;83;25726;-82
2022/07/20 05:15:07;;;;;;;11.75;8.60;;;;;;;19.60;75.76;101261.92;1709194;83;26957;-81
2022/07/20 05:17:34;;;;;;;11.08;8.93;;;;;;;19.65;76.18;101262.88;1716619;83;25960;-80
2022/07/20 05:20:00;;;;;;;10.88;8.48;;;;;;;19.69;75.90;101260.55;1699341;83;25662;-81
2022/07/20 05:22:27;;;;;;;9.53;8.38;;;;;;;19.73;75.87;101259.86;1721091;83;25739;-81
2022/07/20 05:24:53;;;;;;;9.55;7.92;;;;;;;19.79;75.35;101267.09;1678081;83;25859;-81
2022/07/20 05:27:19;;;;;;;13.32;8.60;;;;;;;19.85;75.39;101263.96;1704384;83;27458;-81
2022/07/20 05:29:45;;;;;;;9.85;8.13;;;;;;;19.92;75.45;101264.70;1701372;83;26284;-81
2022/07/20 05:32:12;;;;;;;9.50;7.83;;;;;;;19.97;75.15;101267.02;1720465;83;25749;-81
2022/07/20 05:34:38;;;;;;;11.20;7.75;;;;;;;20.08;75.26;101274.10;1711960;83;25825;-81
2022/07/20 05:37:04;;;;;;;9.78;7.95;;;;;;;20.18;74.97;101272.99;1685282;83;25939;-81
2022/07/20 05:39:30;;;;;;;10.55;7.70;;;;;;;20.27;74.33;101273.83;1688853;83;27451;-81
2022/07/20 05:41:57;;;;;;;11.12;8.25;;;;;;;20.35;74.22;101269.39;1683751;83;25343;-80
2022/07/20 05:44:23;;;;;;;10.75;8.28;;;;;;;20.42;74.36;101271.45;1699436;83;26523;-81
2022/07/20 05:46:50;;;;;;;9.85;7.85;;;;;;;20.49;73.45;101273.55;1695707;83;25895;-82
2022/07/20 05:49:16;;;;;;;12.63;8.80;;;;;;;20.57;72.99;101275.11;1672150;83;25829;-82
2022/07/20 05:51:42;;;;;;;9.75;7.95;;;;;;;20.65;72.90;101277.47;1694871;83;27468;-82
2022/07/20 05:54:08;;;;;;;9.98;7.03;;;;;;;20.72;73.06;101276.83;1720556;83;25853;-82
2022/07/20 05:56:35;;;;;;;9.13;7.15;;;;;;;20.86;73.25;101281.48;1702549;83;25886;-82
2022/07/20 05:59:01;;;;;;;9.15;6.92;;;;;;;20.92;72.58;101276.44;1712171;82;26259;-81
2022/07/20 06:01:28;;;;;;;11.05;7.12;;;;;;;20.99;72.80;101279.34;1699305;83;25384;-82
2022/07/20 06:03:54;;;;;;;14.87;8.03;;;;;;;21.07;72.18;101285.82;1705177;83;26994;-81
2022/07/20 06:06:20;;;;;;;8.40;7.12;;;;;;;21.17;72.50;101295.56;1696740;83;25911;-82
2022/07/20 06:08:47;;;;;;;9.10;7.40;;;;;;;21.24;72.10;101291.35;1689049;84;25894;-82
2022/07/20 06:11:13;;;;;;;11.15;7.42;;;;;;;21.30;71.91;101292.59;1693182;84;26257;-82
2022/07/20 06:13:39;;;;;;;8.98;7.15;;;;;;;21.35;71.83;101295.43;1704417;83;25838;-82
2022/07/20 06:16:06;;;;;;;12.35;7.17;;;;;;;21.41;71.13;101295.83;1693761;83;27440;-82
2022/07/20 06:18:32;;;;;;;8.63;6.42;;;;;;;21.50;70.75;101303.92;1677258;83;25803;-82
2022/07/20 06:21:01;;;;;;;8.65;6.50;;;;;;;21.61;70.23;101307.69;1717540;83;26006;-82
2022/07/20 06:23:27;;;;;;;9.73;6.20;;;;;;;21.70;69.26;101305.41;1720558;83;26565;-82
2022/07/20 06:25:53;;;;;;;10.05;6.70;;;;;;;21.76;68.58;101301.17;1683220;83;25852;-82
2022/07/20 06:28:20;;;;;;;8.10;6.67;;;;;;;21.79;68.39;101303.39;1697556;83;27451;-81
2022/07/20 06:30:46;;;;;;;8.93;6.55;;;;;;;21.86;68.91;101308.21;1696262;83;26703;-81
2022/07/20 06:33:12;;;;;;;7.72;6.58;;;;;;;21.99;68.42;101312.01;1700244;83;25991;-81
2022/07/20 06:35:38;;;;;;;10.38;7.20;;;;;;;22.09;67.39;101314.11;1721035;82;26097;-81
2022/07/20 06:38:05;;;;;;;10.18;6.33;;;;;;;22.17;67.02;101314.55;1683804;83;25367;-81
2022/07/20 06:40:31;;;;;;;10.98;7.40;;;;;;;22.23;66.36;101311.36;1701464;83;27424;-81
2022/07/20 06:42:58;;;;;;;8.65;6.37;;;;;;;22.27;67.00;101304.33;1691500;83;26507;-81
2022/07/20 06:45:24;;;;;;;8.25;5.33;;;;;;;22.32;65.39;101306.32;1653132;85;25358;-81
2022/07/20 06:47:50;;;;;;;8.05;5.62;;;;;;;22.40;63.90;101301.81;1676264;83;25840;-81
2022/07/20 06:50:17;;;;;;;10.30;6.17;;;;;;;22.44;64.30;101292.88;1663228;86;25674;-81
2022/07/20 06:52:43;;;;;;;4.62;4.17;;;;;;;22.51;63.27;101302.27;1694769;83;28505;-81
2022/07/20 06:55:10;;;;;;;5.62;4.45;;;;;;;22.55;62.27;101306.99;1691483;83;25357;-81
2022/07/20 06:57:37;;;;;;;4.42;3.90;;;;;;;22.58;59.47;101302.38;1710414;83;26345;-81
2022/07/20 07:00:07;;;;;;;6.37;4.15;;;;;;;22.65;60.07;101298.16;1682321;83;25470;-82
2022/07/20 07:02:34;;;;;;;6.22;4.12;;;;;;;22.73;60.32;101299.13;1680579;83;25937;-81
2022/07/20 07:05:00;;;;;;;6.15;4.92;;;;;;;22.82;59.58;101303.06;1700159;83;26912;-81
2022/07/20 07:07:26;;;;;;;5.67;4.78;;;;;;;22.88;59.30;101304.26;1702993;83;25862;-82
2022/07/20 07:09:53;;;;;;;8.05;5.60;;;;;;;22.92;59.36;101301.31;1698071;83;25320;-82
2022/07/20 07:12:19;;;;;;;8.88;4.70;;;;;;;23.00;59.02;101304.17;1703025;83;26076;-81
2022/07/20 07:14:45;;;;;;;5.28;4.62;;;;;;;23.06;58.71;101303.69;1699440;83;25722;-81
2022/07/20 07:17:12;;;;;;;8.65;5.28;;;;;;;23.08;58.11;101302.37;1693426;83;27441;-82
2022/07/20 07:19:40;;;;;;;8.13;5.40;;;;;;;23.11;58.66;101302.41;1674009;83;25819;-81
2022/07/20 07:22:06;;;;;;;6.97;4.95;;;;;;;23.15;58.92;101305.75;1716895;83;25290;-81
2022/07/20 07:24:33;;;;;;;6.15;5.05;;;;;;;23.21;58.96;101308.84;1716772;82;26139;-81
2022/07/20 07:26:59;;;;;;;6.42;5.42;;;;;;;23.27;58.93;101302.35;1710497;83;26155;-81
2022/07/20 07:29:27;;;;;;;7.28;5.12;;;;;;;23.35;59.05;101309.34;1691227;83;27541;-81
2022/07/20 07:31:58;;;;;;;8.70;5.22;;;;;;;23.40;57.64;101302.55;1696648;83;25937;-81
2022/07/20 07:34:22;;;;;;;6.00;4.60;;;;;;;23.43;57.75;101301.52;1673865;83;25770;-81
2022/07/20 07:36:48;;;;;;;5.25;4.72;;;;;;;23.46;58.36;101299.62;1673460;83;25803;-81
2022/07/20 07:39:14;;;;;;;6.58;4.92;;;;;;;23.51;58.31;101309.80;1674125;83;25344;-81
2022/07/20 07:41:41;;;;;;;6.72;5.17;;;;;;;23.56;58.17;101305.77;1690815;83;27521;-81
2022/07/20 07:44:07;;;;;;;5.83;5.03;;;;;;;23.64;58.37;101307.52;1708101;83;25807;-81
2022/07/20 07:46:33;;;;;;;6.17;4.78;;;;;;;23.71;56.86;101308.69;1691680;83;25815;-81
2022/07/20 07:49:00;;;;;;;6.50;5.37;;;;;;;23.74;57.30;101308.99;1701915;83;25918;-81
2022/07/20 07:51:26;;;;;;;6.35;5.17;;;;;;;23.82;57.04;101306.36;1698041;82;25793;-82
2022/07/20 07:53:52;;;;;;;7.60;5.30;;;;;;;23.91;57.27;101303.99;1675641;83;28247;-81
2022/07/20 07:56:19;;;;;;;5.42;4.90;;;;;;;23.99;57.15;101304.89;1672663;83;25353;-82
2022/07/20 07:58:45;;;;;;;7.40;5.05;;;;;;;24.03;55.87;101310.12;1695361;83;25529;-82
2022/07/20 08:01:11;;;;;;;6.25;5.10;;;;;;;24.06;56.52;101305.55;1718370;83;26184;-81
2022/07/20 08:03:38;;;;;;;5.83;5.12;;;;;;;24.10;56.32;101299.27;1680523;83;25884;-81
2022/07/20 08:06:05;;;;;;;5.25;4.25;;;;;;;24.14;56.23;101300.44;1718094;83;28275;-81
2022/07/20 08:08:31;;;;;;;3.95;3.55;;;;;;;24.22;54.55;101297.76;1700381;83;25775;-81
2022/07/20 08:10:58;;;;;;;5.05;3.92;;;;;;;24.23;53.73;101297.48;1694722;83;25298;-81
2022/07/20 08:13:24;;;;;;;6.17;4.17;;;;;;;24.26;53.21;101289.30;1707262;83;25914;-81
2022/07/20 08:15:51;;;;;;;6.20;4.60;;;;;;;24.28;53.96;101286.59;1703132;83;25985;-81
2022/07/20 08:18:17;;;;;;;5.97;3.95;;;;;;;24.36;55.10;101282.00;1704527;83;28506;-82
2022/07/20 08:20:43;;;;;;;5.67;4.35;;;;;;;24.45;54.72;101283.18;1689697;83;25293;-81
2022/07/20 08:23:10;;;;;;;7.67;4.85;;;;;;;24.53;54.35;101279.95;1691742;83;25794;-82
2022/07/20 08:25:36;;;;;;;7.25;4.55;;;;;;;24.58;53.43;101276.96;1682707;83;25835;-82
2022/07/20 08:28:16;;;;;;;5.25;4.65;;;;;;;24.63;53.27;101275.64;1717585;82;25414;-80
2022/07/20 08:30:46;;;;;;;6.72;3.95;;;;;;;24.69;52.62;101274.05;1711068;83;28304;-84
2022/07/20 08:33:12;;;;;;;5.30;3.92;;;;;;;24.78;52.90;101282.09;1705564;83;25818;-82
2022/07/20 08:35:40;;;;;;;6.40;3.33;;;;;;;24.86;52.15;101273.38;1711432;83;25867;-83
2022/07/20 08:38:09;;;;;;;5.33;3.70;;;;;;;24.92;51.18;101273.67;1672255;83;25808;-80
2022/07/20 08:40:38;;;;;;;29.27;26.35;;;;;;;25.00;51.04;101272.37;1701058;83;25884;-82
2022/07/20 08:43:05;;;;;;;4.95;3.87;;;;;;;25.07;51.24;101272.39;1648211;85;28789;-79
2022/07/20 08:45:35;;;;;;;6.75;4.37;;;;;;;25.17;51.44;101267.52;1674530;84;26533;-80
2022/07/20 08:48:08;;;;;;;3.75;3.35;;;;;;;25.26;51.32;101261.78;1683042;84;25765;-82
2022/07/20 08:50:33;;;;;;;4.05;3.55;;;;;;;25.37;50.81;101264.85;1656519;86;25799;-83
2022/07/20 08:53:00;;;;;;;4.58;3.70;;;;;;;25.43;51.42;101265.18;1715588;82;26511;-84
2022/07/20 08:55:28;;;;;;;5.08;3.90;;;;;;;25.51;51.85;101263.84;1699225;83;27473;-79
2022/07/20 08:57:54;;;;;;;7.17;3.60;;;;;;;25.60;50.87;101259.50;1716025;83;27109;-79
2022/07/20 09:00:21;;;;;;;4.17;3.50;;;;;;;25.74;51.09;101263.36;1703688;83;25758;-79
2022/07/20 09:02:55;;;;;;;5.60;3.85;;;;;;;25.81;51.32;101259.25;1671350;83;25464;-79
2022/07/20 09:05:25;;;;;;;5.92;3.70;;;;;;;25.85;49.79;101263.09;1671087;83;25957;-79
2022/07/20 09:07:55;;;;;;;5.72;3.37;;;;;;;25.86;50.05;101262.02;1711998;83;27471;-79
2022/07/20 09:10:30;;;;;;;3.60;3.22;;;;;;;25.90;50.23;101265.86;1672051;83;26540;-80
2022/07/20 09:13:14;;;;;;;3.90;3.50;;;;;;;25.91;49.30;101258.45;1690405;83;26429;-79
2022/07/20 09:15:47;;;;;;;4.35;3.62;;;;;;;25.90;49.55;101260.91;1671135;83;26360;-79
2022/07/20 09:18:24;;;;;;;6.22;3.87;;;;;;;25.93;50.14;101262.59;1690592;82;25888;-81
2022/07/20 09:20:55;;;;;;;9.38;3.75;;;;;;;25.98;49.81;101261.20;1695378;83;27567;-79
2022/07/20 09:23:41;;;;;;;9.38;3.70;;;;;;;26.05;49.67;101264.25;1704473;83;26517;-79
2022/07/20 09:26:13;;;;;;;6.08;3.30;;;;;;;26.08;50.26;101260.95;1682019;83;26533;-79
2022/07/20 09:28:43;;;;;;;5.70;3.42;;;;;;;26.10;50.35;101258.23;1680334;84;26172;-80
2022/07/20 09:31:18;;;;;;;4.77;3.90;;;;;;;26.13;49.70;101256.33;1695335;84;26017;-79
2022/07/20 09:34:07;;;;;;;3.77;3.47;;;;;;;26.17;49.69;101257.97;1674719;84;28368;-85
2022/07/20 09:36:37;;;;;;;4.30;3.30;;;;;;;26.22;48.34;101266.22;1685501;84;25880;-81
2022/07/20 09:39:14;;;;;;;7.05;3.45;;;;;;;26.31;48.25;101259.89;1651980;86;25319;-81
2022/07/20 09:41:44;;;;;;;3.35;2.75;;;;;;;26.39;47.60;101255.22;1679940;83;26441;-82
2022/07/20 09:44:23;;;;;;;3.72;3.22;;;;;;;26.45;47.69;101247.81;1696412;83;25950;-82
2022/07/20 09:46:50;;;;;;;6.17;3.30;;;;;;;26.50;47.37;101244.50;1679319;83;28295;-81
2022/07/20 09:49:17;;;;;;;4.28;3.55;;;;;;;26.52;47.31;101251.91;1704853;83;25814;-82
2022/07/20 09:51:49;;;;;;;5.37;3.27;;;;;;;26.54;46.80;101246.13;1689918;83;25344;-81
2022/07/20 09:54:18;;;;;;;4.62;3.22;;;;;;;26.61;45.98;101252.17;1695600;84;25844;-81
2022/07/20 09:56:48;;;;;;;3.60;3.00;;;;;;;26.64;47.01;101248.89;1683991;84;25944;-81
2022/07/20 09:59:17;;;;;;;6.67;3.20;;;;;;;26.62;46.41;101246.39;1699275;83;33364;-81
2022/07/20 10:01:51;;;;;;;3.45;3.15;;;;;;;26.64;46.58;101248.34;1700849;83;25305;-81
2022/07/20 10:04:18;;;;;;;3.15;2.85;;;;;;;26.67;46.93;101243.65;1689565;83;25837;-82
2022/07/20 10:06:51;;;;;;;6.03;3.55;;;;;;;26.71;45.87;101248.86;1683914;83;25905;-81
2022/07/20 10:09:19;;;;;;;3.20;2.80;;;;;;;26.77;45.31;101245.60;1657984;85;26823;-82
2022/07/20 10:11:47;;;;;;;3.80;3.10;;;;;;;26.84;45.75;101249.44;1673658;84;26921;-84
2022/07/20 10:14:21;;;;;;;7.05;3.55;;;;;;;26.87;46.50;101246.11;1683983;84;25849;-83
2022/07/20 10:16:50;;;;;;;3.62;2.90;;;;;;;26.87;46.19;101248.31;1691379;84;26608;-84
2022/07/20 10:19:17;;;;;;;5.35;3.17;;;;;;;26.89;45.79;101250.78;1701379;83;25704;-81
2022/07/20 10:21:50;;;;;;;4.40;2.80;;;;;;;26.96;46.87;101249.40;1698626;83;26000;-83
2022/07/20 10:24:30;;;;;;;3.62;2.98;;;;;;;27.08;45.54;101251.82;1701857;83;27447;-83
2022/07/20 10:27:15;;;;;;;3.33;2.85;;;;;;;27.18;45.10;101251.80;1685077;83;25877;-83
2022/07/20 10:29:49;;;;;;;4.55;2.87;;;;;;;27.27;45.27;101249.55;1716826;83;25994;-85
2022/07/20 10:32:23;;;;;;;5.05;3.10;;;;;;;27.29;44.53;101247.88;1683963;83;26469;-85
2022/07/20 10:34:56;;;;;;;4.42;2.83;;;;;;;27.31;45.63;101252.00;1675842;83;25974;-83
2022/07/20 10:37:41;;;;;;;2.80;2.02;;;;;;;27.33;44.67;101241.54;1700845;83;27479;-82
2022/07/20 10:40:20;;;;;;;4.12;3.10;;;;;;;27.42;44.01;101240.43;1672446;83;26625;-81
2022/07/20 10:42:56;;;;;;;3.40;1.95;;;;;;;27.44;44.49;101237.67;1694233;83;44348;-84
2022/07/20 10:45:27;;;;;;;4.45;2.58;;;;;;;27.66;42.98;101238.66;1704258;83;25526;-84
2022/07/20 10:51:11;;;;;;;4.72;2.70;;;;;;;27.80;42.80;101242.98;1698521;82;26071;-82
2022/07/20 10:53:37;;;;;;;51.23;5.15;;;;;;;27.89;42.42;101244.00;1703283;82;25883;-82
2022/07/20 10:56:06;;;;;;;2.77;2.50;;;;;;;27.87;42.03;101243.47;1703103;82;26499;-83
2022/07/20 10:58:37;;;;;;;17.73;3.08;;;;;;;27.89;41.82;101237.13;1699070;84;26063;-83
2022/07/20 11:01:06;;;;;;;;;;;;;;;27.92;42.19;101239.31;1704669;82;25899;-83
2022/07/20 11:03:43;;;;;;;4.35;2.55;;;;;;;27.98;41.85;101239.58;1702441;84;27478;-83
2022/07/20 11:06:14;;;;;;;5.87;3.12;;;;;;;28.04;41.43;101242.55;1701525;84;25822;-82
2022/07/20 11:08:53;;;;;;;6.42;3.27;;;;;;;28.11;42.30;101234.80;1714168;82;25852;-84
2022/07/20 11:11:24;;;;;;;3.60;2.98;;;;;;;28.13;41.66;101240.84;1706207;82;26252;-85
2022/07/20 11:13:50;;;;;;;2.75;2.35;;;;;;;28.16;41.11;101249.34;1701905;83;25900;-83
2022/07/20 11:16:23;;;;;;;4.28;2.58;;;;;;;28.25;41.97;101250.37;1702274;82;27455;-84
2022/07/20 11:18:50;;;;;;;4.87;2.65;;;;;;;28.34;41.64;101242.86;1701674;82;26651;-83
2022/07/20 11:21:17;;;;;;;3.40;2.75;;;;;;;28.40;41.71;101244.48;1674056;83;26051;-82
2022/07/20 11:23:50;;;;;;;4.85;3.08;;;;;;;28.46;41.72;101241.39;1673955;84;25849;-82
2022/07/20 11:26:20;;;;;;;4.10;3.27;;;;;;;28.50;41.72;101245.21;1701761;82;25951;-85
2022/07/20 11:28:51;;;;;;;4.45;2.90;;;;;;;28.58;40.92;101230.82;1701248;82;27445;-85
2022/07/20 11:31:23;;;;;;;3.92;2.92;;;;;;;28.57;41.63;101231.92;1701061;84;25954;-84
2022/07/20 11:33:52;;;;;;;8.83;2.90;;;;;;;28.57;41.44;101226.41;1702064;84;25758;-83